Time;durP1;ratioP1;P1;durP2;ratioP2;P2;SDS_P1;SDS_P2;PMS_P1;PMS_P2;Temp;Humidity;BMP_temperature;BMP_pressure;BME280_temperature;BME280_humidity;BME280_pressure;Samples;Min_cycle;Max_cycle;Signal;HPM_P1;HPM_P2
2022/09/08 00:00:07;;;;;;;2.78;1.42;;;19.00;99.90;;;;;;5047799;28;20626;-78
2022/09/08 00:02:37;;;;;;;0.10;0.10;;;18.90;99.90;;;;;;5065976;28;20021;-78
2022/09/08 00:05:04;;;;;;;0.00;0.00;;;19.00;99.90;;;;;;5066403;28;20025;-78
2022/09/08 00:07:32;;;;;;;0.20;0.20;;;18.90;99.90;;;;;;5049223;28;20025;-77
2022/09/08 00:09:59;;;;;;;1.67;0.40;;;18.90;99.90;;;;;;5048757;28;20035;-78
2022/09/08 00:12:25;;;;;;;1.98;0.95;;;18.90;99.90;;;;;;5031812;28;20032;-78
2022/09/08 00:14:52;;;;;;;3.83;0.82;;;18.80;99.90;;;;;;5065645;28;20147;-78
2022/09/08 00:17:18;;;;;;;0.05;0.05;;;18.70;99.90;;;;;;5065326;28;20027;-77
2022/09/08 00:19:45;;;;;;;0.30;0.30;;;18.70;99.90;;;;;;5030273;28;20062;-77
2022/09/08 00:22:10;;;;;;;2.30;0.75;;;18.80;99.90;;;;;;5047112;28;20039;-78
2022/09/08 00:24:36;;;;;;;0.00;0.00;;;18.70;99.90;;;;;;5046487;28;20029;-78
2022/09/08 00:27:02;;;;;;;1.02;0.55;;;18.80;99.90;;;;;;5048898;28;20025;-78
2022/09/08 00:29:28;;;;;;;0.00;0.00;;;18.70;99.90;;;;;;5065172;28;20021;-78
2022/09/08 00:31:54;;;;;;;0.30;0.30;;;18.70;99.90;;;;;;5048087;28;20029;-78
2022/09/08 00:34:20;;;;;;;3.30;0.88;;;18.70;99.90;;;;;;5047687;28;20029;-78
2022/09/08 00:36:46;;;;;;;0.10;0.10;;;18.60;99.90;;;;;;5030576;28;20035;-78
2022/09/08 00:39:11;;;;;;;0.30;0.30;;;18.60;99.90;;;;;;5047446;28;20032;-78
2022/09/08 00:41:37;;;;;;;0.00;0.00;;;18.60;99.90;;;;;;5065058;28;20025;-77
2022/09/08 00:44:41;;;;;;;0.45;0.45;;;18.60;99.90;;;;;;5047676;28;20025;-78
2022/09/08 00:47:16;;;;;;;0.30;0.30;;;18.60;99.90;;;;;;5047439;28;20025;-78
2022/09/08 00:49:46;;;;;;;0.43;0.43;;;18.60;99.90;;;;;;5031014;28;20059;-78
2022/09/08 00:52:12;;;;;;;0.10;0.10;;;18.60;99.90;;;;;;5030961;28;20112;-78
2022/09/08 00:54:38;;;;;;;0.10;0.10;;;18.80;99.90;;;;;;5047315;28;20025;-78
2022/09/08 00:57:05;;;;;;;0.28;0.25;;;18.70;99.90;;;;;;5047725;28;20027;-78
2022/09/08 00:59:36;;;;;;;0.20;0.20;;;18.80;99.90;;;;;;5066275;28;20033;-77
2022/09/08 01:02:19;;;;;;;0.10;0.10;;;18.90;99.90;;;;;;5031454;28;20025;-78
2022/09/08 01:04:45;;;;;;;0.30;0.30;;;18.90;99.90;;;;;;5048606;28;20271;-78
2022/09/08 01:13:06;;;;;;;0.10;0.10;;;18.60;99.90;;;;;;5069396;28;20056;-78
2022/09/08 01:15:32;;;;;;;0.10;0.10;;;18.70;99.90;;;;;;5050802;28;20021;-77
2022/09/08 01:17:58;;;;;;;0.08;0.08;;;18.70;99.90;;;;;;5069180;28;20020;-78
2022/09/08 01:20:34;;;;;;;0.43;0.43;;;18.60;99.90;;;;;;5051583;28;20098;-78
2022/09/08 01:23:40;;;;;;;0.10;0.10;;;18.80;99.90;;;;;;5069438;28;20080;-78
2022/09/08 01:26:18;;;;;;;0.00;0.00;;;18.80;99.90;;;;;;5050992;28;20025;-78
2022/09/08 01:28:53;;;;;;;0.00;0.00;;;18.90;99.90;;;;;;5033653;28;20522;-78
2022/09/08 01:31:20;;;;;;;0.68;0.60;;;18.80;99.90;;;;;;5033611;28;20036;-78
2022/09/08 01:33:46;;;;;;;1.85;1.17;;;18.60;99.90;;;;;;5050756;28;20075;-78
2022/09/08 01:36:14;;;;;;;0.10;0.10;;;18.50;99.90;;;;;;5050368;28;20021;-78
2022/09/08 01:38:41;;;;;;;0.40;0.40;;;18.30;99.90;;;;;;5050336;28;20048;-78
2022/09/08 01:41:07;;;;;;;0.10;0.10;;;18.40;99.90;;;;;;5051666;28;20274;-78
2022/09/08 01:43:33;;;;;;;0.20;0.20;;;18.40;99.90;;;;;;5051490;28;20128;-78
2022/09/08 01:45:59;;;;;;;0.00;0.00;;;18.40;99.90;;;;;;5051575;28;20033;-78
2022/09/08 01:48:26;;;;;;;0.10;0.10;;;18.40;99.90;;;;;;5050723;28;20052;-78
2022/09/08 01:50:56;;;;;;;0.00;0.00;;;18.30;99.90;;;;;;5134662;22;20040;-76
2022/09/08 01:53:22;;;;;;;0.25;0.25;;;18.30;99.90;;;;;;5086992;28;20085;-74
2022/09/08 01:55:48;;;;;;;0.30;0.30;;;18.50;99.90;;;;;;5076634;28;20013;-73
2022/09/08 01:58:14;;;;;;;0.20;0.20;;;18.60;99.90;;;;;;5094860;28;20028;-73
2022/09/08 02:00:40;;;;;;;0.10;0.10;;;18.70;99.90;;;;;;5094724;28;20510;-73
2022/09/08 02:03:06;;;;;;;0.08;0.08;;;18.60;99.90;;;;;;5094490;28;20094;-73
2022/09/08 02:05:32;;;;;;;0.10;0.10;;;18.40;99.90;;;;;;5076341;28;20016;-72
2022/09/08 02:07:58;;;;;;;0.10;0.10;;;18.30;99.90;;;;;;5059669;28;20489;-72
2022/09/08 02:10:24;;;;;;;0.20;0.20;;;18.30;99.90;;;;;;5094513;28;20024;-72
2022/09/08 02:12:49;;;;;;;0.20;0.20;;;18.30;99.90;;;;;;5094465;28;20027;-72
2022/09/08 02:15:15;;;;;;;0.45;0.40;;;18.20;99.90;;;;;;5094340;28;20012;-72
2022/09/08 02:17:41;;;;;;;0.47;0.20;;;18.10;99.90;;;;;;5076162;28;20024;-72
2022/09/08 02:20:07;;;;;;;0.10;0.10;;;18.00;99.90;;;;;;5094487;28;20069;-73
2022/09/08 02:22:33;;;;;;;0.13;0.13;;;17.90;99.90;;;;;;5075070;28;20110;-73
2022/09/08 02:24:59;;;;;;;0.00;0.00;;;18.00;99.90;;;;;;5076213;28;20205;-72
2022/09/08 02:27:25;;;;;;;3.08;0.40;;;18.10;99.90;;;;;;5094266;28;20550;-73
2022/09/08 02:29:51;;;;;;;0.28;0.28;;;17.90;99.90;;;;;;5076096;28;20036;-73
2022/09/08 02:32:16;;;;;;;0.28;0.28;;;17.70;99.90;;;;;;5093792;28;20104;-73
2022/09/08 02:34:42;;;;;;;0.00;0.00;;;17.80;99.90;;;;;;5093999;28;20133;-73
2022/09/08 02:37:08;;;;;;;0.00;0.00;;;17.80;99.90;;;;;;5059081;28;20035;-73
2022/09/08 02:39:34;;;;;;;0.00;0.00;;;17.90;99.90;;;;;;5094185;28;20421;-73
2022/09/08 02:41:59;;;;;;;0.10;0.10;;;18.10;99.90;;;;;;5093730;28;20364;-73
2022/09/08 02:44:25;;;;;;;0.00;0.00;;;17.90;99.90;;;;;;5094098;28;20024;-73
2022/09/08 02:46:51;;;;;;;0.10;0.10;;;18.20;99.90;;;;;;5075699;28;20028;-73
2022/09/08 02:49:17;;;;;;;0.00;0.00;;;18.20;99.90;;;;;;5093939;28;20118;-73
2022/09/08 02:51:43;;;;;;;0.00;0.00;;;18.50;99.90;;;;;;5093572;28;20032;-73
2022/09/08 02:54:09;;;;;;;0.20;0.20;;;18.60;99.90;;;;;;5093978;28;20027;-73
2022/09/08 02:56:35;;;;;;;0.73;0.47;;;18.30;99.90;;;;;;5093691;28;20012;-73
2022/09/08 02:59:01;;;;;;;0.00;0.00;;;18.20;99.90;;;;;;5093912;28;20032;-73
2022/09/08 03:01:27;;;;;;;0.00;0.00;;;18.20;99.90;;;;;;5093718;28;20024;-73
2022/09/08 03:03:52;;;;;;;0.13;0.13;;;18.30;99.90;;;;;;5075603;28;20081;-73
2022/09/08 03:06:18;;;;;;;0.10;0.10;;;18.00;99.90;;;;;;5093459;28;20085;-73
2022/09/08 03:08:46;;;;;;;0.10;0.10;;;17.70;99.90;;;;;;5093495;28;20032;-73
2022/09/08 03:11:12;;;;;;;0.10;0.10;;;17.70;99.90;;;;;;5093510;28;20103;-73
2022/09/08 03:13:39;;;;;;;0.10;0.10;;;17.80;99.90;;;;;;5058486;28;20020;-73
2022/09/08 03:16:05;;;;;;;0.00;0.00;;;17.80;99.90;;;;;;5093384;28;20020;-73
2022/09/08 03:18:32;;;;;;;0.00;0.00;;;17.90;99.90;;;;;;5093406;28;20103;-73
2022/09/08 03:21:03;;;;;;;0.10;0.10;;;18.10;99.90;;;;;;5093236;28;20092;-73
2022/09/08 03:23:31;;;;;;;0.00;0.00;;;17.90;99.90;;;;;;5075169;28;20115;-73
2022/09/08 03:26:01;;;;;;;0.00;0.00;;;17.90;99.90;;;;;;5093283;28;20085;-73
2022/09/08 03:28:27;;;;;;;1.35;0.05;;;18.00;99.90;;;;;;5075072;28;20486;-73
2022/09/08 03:30:53;;;;;;;0.00;0.00;;;18.10;99.90;;;;;;5074894;28;20031;-73
2022/09/08 03:33:19;;;;;;;0.30;0.20;;;17.90;99.90;;;;;;5074582;28;20035;-73
2022/09/08 03:35:47;;;;;;;0.10;0.10;;;17.70;99.90;;;;;;5093020;28;20022;-73
2022/09/08 03:38:14;;;;;;;0.00;0.00;;;17.60;99.90;;;;;;5092953;28;20487;-73
2022/09/08 03:40:41;;;;;;;0.00;0.00;;;17.80;99.90;;;;;;5057827;28;20027;-73
2022/09/08 03:43:08;;;;;;;0.00;0.00;;;18.10;99.90;;;;;;5092535;28;20024;-73
2022/09/08 03:45:34;;;;;;;0.10;0.10;;;18.10;99.90;;;;;;5057772;28;20040;-73
2022/09/08 03:48:00;;;;;;;0.00;0.00;;;18.20;99.90;;;;;;5092601;28;20016;-73
2022/09/08 03:50:26;;;;;;;0.32;0.32;;;18.30;99.90;;;;;;5092643;28;20035;-72
2022/09/08 03:52:52;;;;;;;0.10;0.10;;;18.50;99.90;;;;;;5092543;28;20020;-72
2022/09/08 03:55:18;;;;;;;0.00;0.00;;;18.40;99.90;;;;;;5092487;28;20091;-72
2022/09/08 03:57:44;;;;;;;0.00;0.00;;;18.30;99.90;;;;;;5057535;28;20097;-72
2022/09/08 04:00:12;;;;;;;1.35;0.88;;;18.20;99.90;;;;;;5092363;28;20058;-73
2022/09/08 04:02:38;;;;;;;0.85;0.73;;;17.70;99.90;;;;;;5057451;28;20533;-72
2022/09/08 04:05:05;;;;;;;0.10;0.10;;;17.40;99.90;;;;;;5092257;28;20031;-72
2022/09/08 04:07:31;;;;;;;0.00;0.00;;;17.10;99.90;;;;;;5092328;28;20024;-72
2022/09/08 04:09:58;;;;;;;0.00;0.00;;;17.20;99.90;;;;;;5092196;28;20030;-73
2022/09/08 04:12:25;;;;;;;0.10;0.10;;;17.40;99.90;;;;;;5057099;28;20020;-73
2022/09/08 04:14:51;;;;;;;0.10;0.10;;;17.50;99.90;;;;;;5073968;28;20024;-73
2022/09/08 04:17:19;;;;;;;0.00;0.00;;;17.70;99.90;;;;;;5092128;28;20439;-73
2022/09/08 04:19:47;;;;;;;0.00;0.00;;;17.50;99.90;;;;;;5073983;28;20020;-74
2022/09/08 04:22:13;;;;;;;0.05;0.05;;;17.50;99.90;;;;;;5057230;28;20157;-73
2022/09/08 04:24:38;;;;;;;0.10;0.10;;;17.60;99.90;;;;;;5073770;28;20482;-73
2022/09/08 04:27:04;;;;;;;0.20;0.20;;;17.50;99.90;;;;;;5091879;28;20027;-73
2022/09/08 04:29:30;;;;;;;0.10;0.10;;;17.50;99.90;;;;;;5073892;28;20116;-73
2022/09/08 04:31:56;;;;;;;0.10;0.10;;;17.50;99.90;;;;;;5092513;28;20020;-73
2022/09/08 04:34:21;;;;;;;0.00;0.00;;;17.50;99.90;;;;;;5157020;22;20167;-74
2022/09/08 04:36:47;;;;;;;0.10;0.10;;;17.50;99.90;;;;;;5054541;28;20124;-76
2022/09/08 04:39:16;;;;;;;0.20;0.20;;;17.50;99.90;;;;;;5053815;28;20450;-74
2022/09/08 04:41:42;;;;;;;0.08;0.08;;;17.40;99.90;;;;;;5053958;28;20028;-76
2022/09/08 04:44:09;;;;;;;0.38;0.20;;;17.40;99.90;;;;;;5073303;28;20032;-75
2022/09/08 04:46:35;;;;;;;0.10;0.10;;;17.40;99.90;;;;;;5073512;28;20024;-75
2022/09/08 04:49:01;;;;;;;0.10;0.10;;;17.30;99.90;;;;;;5073686;28;20081;-75
2022/09/08 04:51:28;;;;;;;0.10;0.10;;;17.40;99.90;;;;;;5091695;28;20479;-76
2022/09/08 04:53:55;;;;;;;0.43;0.35;;;17.50;99.90;;;;;;5051643;28;20013;-76
2022/09/08 04:56:22;;;;;;;0.30;0.30;;;17.40;99.90;;;;;;5067491;28;20451;-76
2022/09/08 04:58:49;;;;;;;0.05;0.05;;;17.20;99.90;;;;;;5034513;28;20128;-76
2022/09/08 05:01:20;;;;;;;0.20;0.20;;;17.30;99.90;;;;;;5055163;28;20020;-76
2022/09/08 05:03:51;;;;;;;0.10;0.10;;;17.30;99.90;;;;;;5122095;22;20027;-78
2022/09/08 05:06:17;;;;;;;0.85;0.85;;;17.20;99.90;;;;;;5057224;28;20036;-77
2022/09/08 05:08:51;;;;;;;0.88;0.43;;;17.10;99.90;;;;;;5053389;28;20028;-77
2022/09/08 05:11:18;;;;;;;0.20;0.20;;;17.10;99.90;;;;;;5053263;28;20021;-78
2022/09/08 05:13:45;;;;;;;0.00;0.00;;;17.10;99.90;;;;;;5053193;28;20480;-77
2022/09/08 05:16:16;;;;;;;0.10;0.10;;;17.30;99.90;;;;;;5071141;28;20021;-77
2022/09/08 05:18:47;;;;;;;0.10;0.10;;;17.30;99.90;;;;;;5053297;28;20027;-77
2022/09/08 05:21:12;;;;;;;0.52;0.52;;;17.30;99.90;;;;;;5071252;28;20052;-78
2022/09/08 05:23:38;;;;;;;0.10;0.10;;;17.10;99.90;;;;;;5071268;28;20052;-77
2022/09/08 05:26:07;;;;;;;0.00;0.00;;;17.00;99.90;;;;;;5071287;28;20035;-78
2022/09/08 05:28:36;;;;;;;0.10;0.10;;;17.00;99.90;;;;;;5040942;28;20478;-78
2022/09/08 05:31:02;;;;;;;0.10;0.10;;;16.90;99.90;;;;;;5017194;28;20017;-77
2022/09/08 05:33:30;;;;;;;0.05;0.05;;;17.00;99.90;;;;;;5050703;28;20077;-78
2022/09/08 05:35:56;;;;;;;0.00;0.00;;;17.10;99.90;;;;;;5071030;28;20032;-78
2022/09/08 05:38:21;;;;;;;0.10;0.10;;;17.10;99.90;;;;;;5071087;28;20104;-77
2022/09/08 05:40:47;;;;;;;0.10;0.10;;;17.40;99.90;;;;;;5053264;28;20077;-77
2022/09/08 05:43:15;;;;;;;0.00;0.00;;;17.20;99.90;;;;;;5070934;28;20104;-77
2022/09/08 05:45:45;;;;;;;1.75;1.30;;;17.30;99.90;;;;;;5036321;28;20039;-78
2022/09/08 05:48:11;;;;;;;0.10;0.10;;;17.30;99.90;;;;;;5047088;28;20075;-77
2022/09/08 05:50:37;;;;;;;0.10;0.10;;;17.10;99.90;;;;;;5070799;28;20108;-78
2022/09/08 05:53:03;;;;;;;0.30;0.25;;;17.00;99.90;;;;;;5070849;28;20195;-77
2022/09/08 05:55:29;;;;;;;0.30;0.30;;;17.00;99.90;;;;;;5053032;28;20086;-78
2022/09/08 05:57:56;;;;;;;0.10;0.10;;;16.90;99.90;;;;;;5039148;28;20017;-77
2022/09/08 06:00:22;;;;;;;0.17;0.17;;;16.80;99.90;;;;;;5074736;28;20048;-77
2022/09/08 06:02:52;;;;;;;0.10;0.10;;;16.80;99.90;;;;;;5074585;28;20050;-77
2022/09/08 06:05:20;;;;;;;0.10;0.10;;;16.90;99.90;;;;;;5056797;28;20066;-77
2022/09/08 06:07:46;;;;;;;0.03;0.03;;;17.10;99.90;;;;;;5073988;28;20080;-77
2022/09/08 06:10:13;;;;;;;0.28;0.28;;;17.10;99.90;;;;;;5056434;28;20541;-78
2022/09/08 06:12:39;;;;;;;0.17;0.17;;;17.00;99.90;;;;;;5056455;28;20391;-77
2022/09/08 06:15:06;;;;;;;0.57;0.57;;;17.00;99.90;;;;;;5074301;28;20021;-77
2022/09/08 06:17:32;;;;;;;0.10;0.10;;;16.90;99.90;;;;;;5039875;28;20032;-78
2022/09/08 06:19:59;;;;;;;0.10;0.10;;;16.90;99.90;;;;;;5074180;28;20096;-78
2022/09/08 06:22:25;;;;;;;0.03;0.03;;;17.10;99.90;;;;;;5056288;28;20031;-78
2022/09/08 06:24:51;;;;;;;0.10;0.10;;;17.00;99.90;;;;;;5056192;28;20036;-78
2022/09/08 06:27:41;;;;;;;0.10;0.10;;;17.00;99.90;;;;;;5074194;28;20039;-78
2022/09/08 06:30:13;;;;;;;0.10;0.10;;;17.00;99.90;;;;;;5074224;28;20021;-78
2022/09/08 06:32:57;;;;;;;0.10;0.10;;;16.90;99.90;;;;;;5039454;28;20712;-78
2022/09/08 06:35:50;;;;;;;0.10;0.10;;;17.00;99.90;;;;;;5037407;28;20112;-78
2022/09/08 06:38:30;;;;;;;0.40;0.40;;;17.00;99.90;;;;;;5069441;28;20111;-78
2022/09/08 06:41:10;;;;;;;0.10;0.10;;;16.80;99.90;;;;;;5049457;28;20032;-79
2022/09/08 06:43:45;;;;;;;0.10;0.10;;;16.70;99.90;;;;;;5075684;28;20024;-78
2022/09/08 06:46:20;;;;;;;0.22;0.20;;;16.70;99.90;;;;;;5092952;28;20028;-78
2022/09/08 06:48:46;;;;;;;0.13;0.13;;;16.70;99.90;;;;;;5092926;28;20441;-78
2022/09/08 06:51:42;;;;;;;0.10;0.10;;;16.60;99.90;;;;;;5069963;28;20060;-78
2022/09/08 06:54:19;;;;;;;0.47;0.30;;;16.80;99.90;;;;;;5060141;28;20027;-78
2022/09/08 06:56:54;;;;;;;0.10;0.10;;;16.60;99.90;;;;;;5077406;28;20029;-78
2022/09/08 07:00:00;;;;;;;0.10;0.10;;;16.50;99.90;;;;;;5072125;28;20035;-79
2022/09/08 07:02:37;;;;;;;0.10;0.10;;;16.60;99.90;;;;;;5053949;28;20025;-77
2022/09/08 07:05:26;;;;;;;1.27;0.65;;;16.50;99.90;;;;;;5023554;28;20055;-79
2022/09/08 07:08:06;;;;;;;0.00;0.00;;;16.50;99.90;;;;;;5028989;28;20037;-81
2022/09/08 07:10:54;;;;;;;0.10;0.10;;;16.40;99.90;;;;;;5046873;28;20408;-80
2022/09/08 07:13:36;;;;;;;0.57;0.15;;;16.50;99.90;;;;;;5034549;28;20411;-82
2022/09/08 07:16:17;;;;;;;0.40;0.40;;;16.40;99.90;;;;;;5025733;28;20052;-76
2022/09/08 07:19:02;;;;;;;0.10;0.10;;;16.10;99.90;;;;;;5026034;28;20059;-81
2022/09/08 07:21:27;;;;;;;0.00;0.00;;;16.10;99.90;;;;;;5043186;28;20040;-79
2022/09/08 07:23:55;;;;;;;0.10;0.10;;;15.90;99.90;;;;;;5061325;28;20785;-79
2022/09/08 07:26:27;;;;;;;0.00;0.00;;;16.00;99.90;;;;;;5040809;28;20043;-83
2022/09/08 07:28:54;;;;;;;;;;;16.10;99.90;;;;;;5050773;28;20506;-79
2022/09/08 07:31:23;;;;;;;1.98;0.30;;;16.30;99.90;;;;;;5052889;28;20856;-81
2022/09/08 07:33:54;;;;;;;0.00;0.00;;;16.20;99.90;;;;;;5053784;28;20040;-81
2022/09/08 07:36:36;;;;;;;0.10;0.10;;;16.10;99.90;;;;;;5039437;28;20036;-83
2022/09/08 07:39:10;;;;;;;0.10;0.10;;;16.00;99.90;;;;;;5056231;28;20117;-76
2022/09/08 07:41:47;;;;;;;0.00;0.00;;;16.10;99.90;;;;;;5059687;28;20040;-81
2022/09/08 07:44:15;;;;;;;0.10;0.10;;;16.40;99.90;;;;;;5059763;28;20040;-80
2022/09/08 07:46:51;;;;;;;0.05;0.05;;;16.20;99.90;;;;;;5053042;28;20074;-80
2022/09/08 07:49:33;;;;;;;0.00;0.00;;;16.30;99.90;;;;;;5031330;28;20043;-80
2022/09/08 07:52:17;;;;;;;0.10;0.10;;;16.50;99.90;;;;;;5056275;28;20029;-82
2022/09/08 07:54:53;;;;;;;0.00;0.00;;;16.40;99.90;;;;;;5015221;28;20242;-81
2022/09/08 07:57:43;;;;;;;0.28;0.28;;;16.30;99.90;;;;;;5056402;28;20182;-84
2022/09/08 08:00:23;;;;;;;9.73;0.35;;;16.20;99.90;;;;;;5037859;28;20982;-77
2022/09/08 08:03:09;;;;;;;0.10;0.10;;;16.20;99.90;;;;;;5058562;28;20032;-77
2022/09/08 08:05:45;;;;;;;0.10;0.10;;;16.40;99.90;;;;;;5055644;28;20041;-78
2022/09/08 08:08:34;;;;;;;0.10;0.10;;;16.60;99.90;;;;;;5030883;28;20041;-79
2022/09/08 08:11:15;;;;;;;0.10;0.10;;;16.80;99.90;;;;;;5035431;28;20032;-81
2022/09/08 08:14:02;;;;;;;0.00;0.00;;;16.60;99.90;;;;;;5055359;28;20404;-83
2022/09/08 08:16:49;;;;;;;0.30;0.30;;;16.50;99.90;;;;;;5057013;28;20292;-78
2022/09/08 08:19:40;;;;;;;0.20;0.20;;;16.50;99.90;;;;;;5055894;28;20461;-79
2022/09/08 08:22:44;;;;;;;0.00;0.00;;;16.40;99.90;;;;;;5041599;28;20025;-78
2022/09/08 08:25:24;;;;;;;0.30;0.30;;;16.40;99.90;;;;;;5047158;28;20048;-81
2022/09/08 08:28:06;;;;;;;1.63;1.52;;;16.10;99.90;;;;;;5024397;28;20090;-77
2022/09/08 08:30:37;;;;;;;0.17;0.10;;;16.00;99.90;;;;;;5055635;28;20115;-78
2022/09/08 08:33:09;;;;;;;0.10;0.10;;;16.00;99.90;;;;;;5041300;28;20028;-81
2022/09/08 08:35:47;;;;;;;;;;;16.10;99.90;;;;;;5042042;28;20090;-78
2022/09/08 08:38:43;;;;;;;0.15;0.15;;;16.20;99.90;;;;;;5055218;28;19913;-82
2022/09/08 08:41:27;;;;;;;0.10;0.10;;;16.10;99.90;;;;;;5057836;28;20044;-82
2022/09/08 08:44:31;;;;;;;0.10;0.10;;;16.10;99.90;;;;;;5051866;28;20486;-78
2022/09/08 08:47:18;;;;;;;0.10;0.10;;;16.30;99.90;;;;;;5058216;28;20246;-79
2022/09/08 08:50:02;;;;;;;0.20;0.20;;;16.30;99.90;;;;;;5052036;28;20111;-78
2022/09/08 08:52:59;;;;;;;0.00;0.00;;;16.20;99.90;;;;;;5028978;28;20035;-78
2022/09/08 08:55:53;;;;;;;0.10;0.10;;;16.10;99.90;;;;;;5030795;28;20517;-80
2022/09/08 08:58:30;;;;;;;0.10;0.10;;;16.00;99.90;;;;;;5039675;28;20032;-79
2022/09/08 09:01:15;;;;;;;0.20;0.20;;;16.20;99.90;;;;;;5030898;28;20149;-77
2022/09/08 09:04:12;;;;;;;0.22;0.20;;;16.30;99.90;;;;;;5038458;28;20033;-79
2022/09/08 09:07:00;;;;;;;0.10;0.10;;;16.30;99.90;;;;;;5041806;28;20503;-78
2022/09/08 09:09:44;;;;;;;0.10;0.10;;;16.30;99.90;;;;;;5042205;28;20048;-76
2022/09/08 09:12:10;;;;;;;0.00;0.00;;;16.60;99.90;;;;;;5042620;28;20059;-77
2022/09/08 09:14:51;;;;;;;0.10;0.10;;;16.80;99.90;;;;;;5057869;28;20024;-78
2022/09/08 09:17:51;;;;;;;0.00;0.00;;;16.90;99.90;;;;;;5054091;28;20028;-76
2022/09/08 09:20:29;;;;;;;0.10;0.10;;;17.10;99.90;;;;;;5041557;28;20110;-77
2022/09/08 09:23:05;;;;;;;0.22;0.20;;;17.10;99.90;;;;;;5041587;28;20032;-78
2022/09/08 09:25:33;;;;;;;0.00;0.00;;;17.10;99.90;;;;;;5057810;28;20029;-82
2022/09/08 09:28:36;;;;;;;0.10;0.10;;;17.20;99.90;;;;;;5035913;28;20033;-81
2022/09/08 09:31:31;;;;;;;0.05;0.05;;;17.20;99.90;;;;;;5055967;28;20578;-79
2022/09/08 09:34:23;;;;;;;0.05;0.05;;;17.20;99.90;;;;;;5018551;28;20032;-77
2022/09/08 09:36:55;;;;;;;0.10;0.10;;;17.20;99.90;;;;;;5033851;28;20400;-77
2022/09/08 09:39:23;;;;;;;0.00;0.00;;;17.10;99.90;;;;;;5058121;28;20016;-77
2022/09/08 09:42:53;;;;;;;0.10;0.10;;;17.10;99.90;;;;;;5053744;28;20063;-79
2022/09/08 09:45:43;;;;;;;0.05;0.05;;;16.90;99.90;;;;;;4981647;28;20037;-78
2022/09/08 09:48:26;;;;;;;0.10;0.10;;;17.10;99.90;;;;;;5033586;28;20098;-77
2022/09/08 09:51:04;;;;;;;0.00;0.00;;;17.40;99.90;;;;;;5060446;28;20555;-80
2022/09/08 09:53:37;;;;;;;0.10;0.10;;;17.70;99.90;;;;;;5063131;28;20059;-81
2022/09/08 09:56:21;;;;;;;0.10;0.10;;;17.70;99.90;;;;;;5055325;28;20025;-79
2022/09/08 09:59:09;;;;;;;0.30;0.30;;;17.60;99.90;;;;;;5052464;28;20613;-78
2022/09/08 10:01:54;;;;;;;0.10;0.10;;;17.40;99.90;;;;;;5054051;28;20028;-78
2022/09/08 10:04:39;;;;;;;0.10;0.10;;;17.30;99.90;;;;;;5044798;28;20037;-79
2022/09/08 10:07:23;;;;;;;0.10;0.10;;;17.30;99.90;;;;;;5046652;28;20392;-79
2022/09/08 10:10:06;;;;;;;0.10;0.10;;;17.30;99.90;;;;;;5059669;28;20039;-78
2022/09/08 10:12:48;;;;;;;0.00;0.00;;;17.30;99.90;;;;;;5042989;28;20032;-78
2022/09/08 10:15:45;;;;;;;0.10;0.10;;;17.60;99.90;;;;;;5054020;28;20115;-78
2022/09/08 10:18:39;;;;;;;0.10;0.10;;;17.50;99.90;;;;;;5052672;28;20027;-78
2022/09/08 10:21:53;;;;;;;0.10;0.10;;;17.40;99.90;;;;;;5036128;28;20068;-78
2022/09/08 10:24:27;;;;;;;0.40;0.40;;;17.60;99.90;;;;;;5046748;28;20052;-78
2022/09/08 10:27:17;;;;;;;0.10;0.10;;;17.60;99.90;;;;;;5064396;28;20024;-78
2022/09/08 10:29:58;;;;;;;0.10;0.10;;;17.70;99.90;;;;;;5057322;28;20029;-80
2022/09/08 10:32:34;;;;;;;2.08;0.40;;;18.10;99.90;;;;;;5042909;28;20055;-79
2022/09/08 10:35:03;;;;;;;0.10;0.10;;;18.30;99.90;;;;;;5040825;28;20032;-78
2022/09/08 10:38:14;;;;;;;0.10;0.10;;;18.50;99.90;;;;;;5042564;28;20029;-78
2022/09/08 10:40:56;;;;;;;0.10;0.10;;;18.70;99.90;;;;;;5030056;28;20041;-77
2022/09/08 10:43:37;;;;;;;0.08;0.08;;;18.80;99.90;;;;;;5052023;28;20442;-79
2022/09/08 10:46:37;;;;;;;0.00;0.00;;;19.00;99.90;;;;;;5037777;28;20402;-78
2022/09/08 10:49:30;;;;;;;0.15;0.15;;;19.00;99.90;;;;;;5045074;28;20025;-80
2022/09/08 10:52:30;;;;;;;0.10;0.10;;;18.80;99.90;;;;;;5056642;28;20400;-79
2022/09/08 10:54:59;;;;;;;0.05;0.05;;;18.90;99.90;;;;;;5028728;28;20659;-77
2022/09/08 10:57:46;;;;;;;0.10;0.10;;;18.70;99.90;;;;;;5045390;28;20020;-78
2022/09/08 11:00:21;;;;;;;0.10;0.10;;;19.00;99.90;;;;;;5044292;28;20063;-77
2022/09/08 11:03:12;;;;;;;0.10;0.10;;;19.00;99.90;;;;;;5034960;28;20048;-78
2022/09/08 11:05:52;;;;;;;0.10;0.10;;;19.30;99.90;;;;;;5037579;28;20524;-78
2022/09/08 11:08:39;;;;;;;0.03;0.03;;;19.60;99.90;;;;;;5037209;28;20502;-79
2022/09/08 11:11:37;;;;;;;0.35;0.35;;;19.90;99.90;;;;;;5021683;28;20396;-78
2022/09/08 11:14:46;;;;;;;0.08;0.08;;;19.70;99.90;;;;;;5017635;28;20502;-79
2022/09/08 11:17:18;;;;;;;0.10;0.10;;;19.60;99.90;;;;;;5057400;28;20076;-78
2022/09/08 11:19:49;;;;;;;0.17;0.17;;;19.70;99.90;;;;;;5054919;28;20025;-79
2022/09/08 11:22:37;;;;;;;0.00;0.00;;;19.40;99.90;;;;;;5054883;28;20021;-78
2022/09/08 11:25:23;;;;;;;0.10;0.10;;;19.40;99.90;;;;;;5043322;28;20475;-76
2022/09/08 11:27:58;;;;;;;0.10;0.10;;;19.40;99.90;;;;;;5044391;28;20035;-76
2022/09/08 11:30:53;;;;;;;0.10;0.10;;;19.20;99.90;;;;;;5057332;28;20083;-80
2022/09/08 11:33:30;;;;;;;0.10;0.10;;;19.20;99.90;;;;;;5027257;28;20492;-77
2022/09/08 11:36:12;;;;;;;0.05;0.05;;;19.20;99.90;;;;;;5056561;28;20025;-77
2022/09/08 11:38:55;;;;;;;0.00;0.00;;;19.50;99.90;;;;;;5013753;28;20079;-77
2022/09/08 11:41:48;;;;;;;0.05;0.05;;;19.60;99.90;;;;;;5043476;28;20038;-78
2022/09/08 11:44:22;;;;;;;0.20;0.20;;;19.60;99.90;;;;;;5035024;28;20442;-77
2022/09/08 11:47:07;;;;;;;0.00;0.00;;;19.50;99.90;;;;;;5036761;28;20462;-80
2022/09/08 11:49:59;;;;;;;0.10;0.10;;;19.60;99.90;;;;;;5042592;28;20543;-79
2022/09/08 11:52:50;;;;;;;0.00;0.00;;;19.80;99.90;;;;;;5061075;28;20503;-77
2022/09/08 11:55:25;;;;;;;0.10;0.10;;;19.90;99.90;;;;;;5033847;28;20021;-77
2022/09/08 11:58:09;;;;;;;0.10;0.10;;;20.00;99.90;;;;;;5058313;28;20029;-77
2022/09/08 12:00:50;;;;;;;0.20;0.20;;;20.10;99.90;;;;;;5043517;28;20399;-78
2022/09/08 12:03:46;;;;;;;0.00;0.00;;;20.10;99.90;;;;;;5060833;28;20040;-78
2022/09/08 12:06:34;;;;;;;0.10;0.10;;;20.20;99.90;;;;;;5053646;28;20091;-80
2022/09/08 12:09:19;;;;;;;0.30;0.30;;;20.20;99.90;;;;;;5042953;28;20033;-78
2022/09/08 12:12:23;;;;;;;0.05;0.05;;;20.10;99.90;;;;;;5041945;28;20024;-79
2022/09/08 12:15:27;;;;;;;0.10;0.10;;;20.10;99.90;;;;;;5057083;28;20071;-78
2022/09/08 12:18:12;;;;;;;0.10;0.10;;;20.30;99.90;;;;;;5040020;28;20032;-77
2022/09/08 12:20:47;;;;;;;0.10;0.10;;;20.50;99.90;;;;;;5026775;28;20546;-78
2022/09/08 12:23:37;;;;;;;0.10;0.10;;;20.60;99.90;;;;;;5055108;28;20033;-76
2022/09/08 12:26:40;;;;;;;0.10;0.10;;;20.80;99.90;;;;;;5054955;28;20387;-79
2022/09/08 12:29:42;;;;;;;0.10;0.10;;;20.70;99.90;;;;;;5060800;28;20450;-77
2022/09/08 12:32:41;;;;;;;2.08;0.25;;;20.50;99.90;;;;;;5030539;28;20029;-78
2022/09/08 12:35:35;;;;;;;0.10;0.10;;;20.40;99.90;;;;;;5020159;28;20464;-75
2022/09/08 12:38:13;;;;;;;0.10;0.10;;;20.40;99.90;;;;;;5053586;28;20519;-75
2022/09/08 12:41:00;;;;;;;0.15;0.15;;;20.80;99.90;;;;;;5057890;28;20032;-74
2022/09/08 12:43:42;;;;;;;1.08;0.30;;;20.60;99.90;;;;;;5053405;28;20037;-75
2022/09/08 12:46:27;;;;;;;0.10;0.10;;;20.90;99.90;;;;;;5057050;28;20029;-74
2022/09/08 12:49:25;;;;;;;0.10;0.10;;;21.20;99.90;;;;;;5056264;28;20392;-77
2022/09/08 12:51:59;;;;;;;0.00;0.00;;;21.60;99.90;;;;;;5051062;28;20083;-74
2022/09/08 12:54:40;;;;;;;0.25;0.25;;;21.90;99.90;;;;;;5041554;28;20079;-76
2022/09/08 12:57:14;;;;;;;0.10;0.10;;;21.60;99.90;;;;;;5059569;28;20488;-75
2022/09/08 13:00:06;;;;;;;0.08;0.08;;;21.60;99.90;;;;;;5051773;28;20040;-75
2022/09/08 13:03:16;;;;;;;0.00;0.00;;;21.80;99.90;;;;;;5046866;28;20133;-75
2022/09/08 13:06:11;;;;;;;0.00;0.00;;;22.00;99.90;;;;;;5055182;28;20044;-74
2022/09/08 13:08:56;;;;;;;0.20;0.20;;;22.40;99.90;;;;;;5054507;28;20054;-74
2022/09/08 13:11:46;;;;;;;0.10;0.10;;;22.30;99.90;;;;;;5029683;28;20064;-74
2022/09/08 13:14:14;;;;;;;0.20;0.17;;;22.00;99.90;;;;;;5028088;28;20037;-74
2022/09/08 13:17:03;;;;;;;0.00;0.00;;;21.80;98.80;;;;;;5059337;28;20032;-75
2022/09/08 13:19:31;;;;;;;1.15;0.55;;;22.20;99.70;;;;;;5057805;28;20119;-75
2022/09/08 13:22:23;;;;;;;0.10;0.10;;;22.20;98.80;;;;;;5033466;28;20045;-75
2022/09/08 13:25:21;;;;;;;;;;;22.20;97.40;;;;;;5038616;28;20037;-75
2022/09/08 13:27:59;;;;;;;0.25;0.25;;;22.30;96.70;;;;;;5021099;28;19912;-75
2022/09/08 13:30:56;;;;;;;0.13;0.13;;;22.20;96.60;;;;;;5035434;28;20043;-75
2022/09/08 13:33:46;;;;;;;0.00;0.00;;;22.10;96.60;;;;;;5001931;28;20048;-75
2022/09/08 13:36:40;;;;;;;4.28;0.32;;;22.10;96.70;;;;;;5063765;28;20032;-76
2022/09/08 13:39:19;;;;;;;0.03;0.03;;;22.20;95.80;;;;;;5044398;28;20037;-75